createdAt,value
2018-10-03T00:00:04.016Z,4.00
2018-10-03T00:01:04.045Z,4.00
2018-10-03T00:02:03.999Z,4.00
2018-10-03T00:03:03.986Z,4.00
2018-10-03T00:04:03.974Z,4.00
2018-10-03T00:05:03.971Z,4.00
2018-10-03T00:06:03.964Z,4.00
2018-10-03T00:07:03.989Z,4.00
2018-10-03T00:08:03.935Z,4.00
2018-10-03T00:09:03.937Z,4.00
2018-10-03T00:10:04.855Z,4.00
2018-10-03T00:11:03.903Z,4.00
2018-10-03T00:12:03.944Z,4.00
2018-10-03T00:13:03.877Z,4.00
2018-10-03T00:14:03.872Z,4.00
2018-10-03T00:15:03.855Z,4.00
2018-10-03T00:16:03.846Z,4.00
2018-10-03T00:17:03.876Z,4.00
2018-10-03T00:18:03.844Z,4.00
2018-10-03T00:19:03.819Z,4.00
2018-10-03T00:20:03.805Z,4.00
2018-10-03T00:21:03.792Z,4.00
2018-10-03T00:22:03.812Z,4.00
2018-10-03T00:23:03.801Z,4.00
2018-10-03T00:24:03.783Z,4.00
2018-10-03T00:25:03.754Z,4.00
2018-10-03T00:26:03.745Z,4.00
2018-10-03T00:27:03.735Z,4.00
2018-10-03T00:28:03.742Z,4.00
2018-10-03T00:29:03.719Z,4.00
2018-10-03T00:30:03.700Z,4.00
2018-10-03T00:31:03.691Z,4.00
2018-10-03T00:32:03.689Z,4.00
2018-10-03T00:33:03.690Z,4.00
2018-10-03T00:34:03.672Z,4.00
2018-10-03T00:35:03.645Z,4.00
2018-10-03T00:36:03.628Z,4.00
2018-10-03T00:37:03.661Z,4.00
2018-10-03T00:38:03.645Z,4.00
2018-10-03T00:39:03.601Z,4.00
2018-10-03T00:40:03.588Z,4.00
2018-10-03T00:41:03.594Z,4.00
2018-10-03T00:42:03.566Z,4.00
2018-10-03T00:43:03.595Z,4.00
2018-10-03T00:44:03.548Z,4.00
2018-10-03T00:45:03.549Z,4.00
2018-10-03T00:46:03.534Z,4.00
2018-10-03T00:47:03.511Z,4.00
2018-10-03T00:48:03.501Z,4.00
2018-10-03T00:49:03.527Z,4.00
2018-10-03T00:50:03.520Z,4.00
2018-10-03T00:51:03.468Z,4.00
2018-10-03T00:52:03.497Z,4.00
2018-10-03T00:53:03.447Z,4.00
2018-10-03T00:54:03.471Z,4.00
2018-10-03T00:55:03.425Z,4.00
2018-10-03T00:56:03.416Z,4.00
2018-10-03T00:57:03.435Z,4.00
2018-10-03T00:58:03.395Z,4.00
2018-10-03T00:59:03.405Z,4.00
2018-10-03T01:00:03.371Z,4.00
2018-10-03T01:01:03.365Z,4.00
2018-10-03T01:02:03.355Z,4.00
2018-10-03T01:03:03.360Z,4.00
2018-10-03T01:04:03.388Z,4.00
2018-10-03T01:05:03.321Z,4.00
2018-10-03T01:06:03.312Z,4.00
2018-10-03T01:07:03.305Z,4.00
2018-10-03T01:08:03.301Z,4.00
2018-10-03T01:09:03.284Z,4.00
2018-10-03T01:10:03.294Z,4.00
2018-10-03T01:11:03.256Z,4.00
2018-10-03T01:12:03.245Z,4.00
2018-10-03T01:13:03.241Z,4.00
2018-10-03T01:14:03.230Z,4.00
2018-10-03T01:15:03.240Z,4.00
2018-10-03T01:16:03.285Z,4.00
2018-10-03T01:17:03.205Z,4.00
2018-10-03T01:18:03.189Z,4.00
2018-10-03T01:19:03.169Z,4.00
2018-10-03T01:20:03.203Z,4.00
2018-10-03T01:21:03.154Z,4.00
2018-10-03T01:22:03.147Z,4.00
2018-10-03T01:23:03.130Z,4.00
2018-10-03T01:24:03.177Z,4.00
2018-10-03T01:25:03.120Z,4.00
2018-10-03T01:26:03.119Z,4.00
2018-10-03T01:27:03.092Z,4.00
2018-10-03T01:28:03.074Z,4.00
2018-10-03T01:29:03.062Z,4.00
2018-10-03T01:30:03.077Z,4.00
2018-10-03T01:31:03.068Z,4.00
2018-10-03T01:32:03.069Z,4.00
2018-10-03T01:33:03.050Z,4.00
2018-10-03T01:34:03.041Z,4.00
2018-10-03T01:35:03.017Z,4.00
2018-10-03T01:36:03.037Z,4.00
2018-10-03T01:37:02.980Z,4.00
2018-10-03T01:38:02.976Z,4.00
2018-10-03T01:39:02.955Z,4.00
2018-10-03T01:40:02.943Z,4.00
2018-10-03T01:41:02.951Z,4.00
2018-10-03T01:42:02.952Z,4.00
2018-10-03T01:43:02.911Z,4.00
2018-10-03T01:44:02.917Z,4.00
2018-10-03T01:45:02.897Z,4.00
2018-10-03T01:46:02.884Z,4.00
2018-10-03T01:47:02.928Z,4.00
2018-10-03T01:48:02.871Z,4.00
2018-10-03T01:49:02.860Z,4.00
2018-10-03T01:50:02.837Z,4.00
2018-10-03T01:51:02.826Z,4.00
2018-10-03T01:52:03.036Z,4.00
2018-10-03T01:53:02.906Z,4.00
2018-10-03T01:54:02.843Z,4.00
2018-10-03T01:55:02.782Z,4.00
2018-10-03T01:56:02.772Z,4.00
2018-10-03T01:57:02.798Z,4.00
2018-10-03T01:58:02.774Z,4.00
2018-10-03T01:59:02.748Z,4.00
2018-10-03T02:00:02.728Z,4.00
2018-10-03T02:01:02.727Z,4.00
2018-10-03T02:02:02.718Z,4.00
2018-10-03T02:03:02.724Z,4.00
2018-10-03T02:04:02.686Z,4.00
2018-10-03T02:05:02.681Z,4.00
2018-10-03T02:06:02.687Z,4.00
2018-10-03T02:07:02.656Z,4.00
2018-10-03T02:08:02.689Z,4.00
2018-10-03T02:09:02.632Z,4.00
2018-10-03T02:10:02.623Z,4.00
2018-10-03T02:11:02.635Z,4.00
2018-10-03T02:12:02.616Z,4.00
2018-10-03T02:13:02.611Z,4.00
2018-10-03T02:14:02.610Z,4.00
2018-10-03T02:15:02.576Z,4.00
2018-10-03T02:16:02.560Z,4.00
2018-10-03T02:17:02.597Z,4.00
2018-10-03T02:18:02.538Z,4.00
2018-10-03T02:19:02.560Z,4.00
2018-10-03T02:20:02.543Z,4.00
2018-10-03T02:21:02.512Z,4.00
2018-10-03T02:22:02.526Z,4.00
2018-10-03T02:23:02.484Z,4.00
2018-10-03T02:24:02.523Z,4.00
2018-10-03T02:25:02.475Z,4.00
2018-10-03T02:26:02.454Z,4.00
2018-10-03T02:27:02.450Z,4.00
2018-10-03T02:28:02.434Z,4.00
2018-10-03T02:29:02.423Z,4.00
2018-10-03T02:30:02.431Z,4.00
2018-10-03T02:31:02.433Z,4.00
2018-10-03T02:32:02.391Z,4.00
2018-10-03T02:33:02.393Z,4.00
2018-10-03T02:34:02.375Z,4.00
2018-10-03T02:35:02.383Z,4.00
2018-10-03T02:36:02.358Z,4.00
2018-10-03T02:37:02.340Z,4.00
2018-10-03T02:38:02.325Z,4.00
2018-10-03T02:39:02.328Z,4.00
2018-10-03T02:40:02.350Z,4.00
2018-10-03T02:41:02.296Z,4.00
2018-10-03T02:42:02.284Z,4.00
2018-10-03T02:43:02.284Z,4.00
2018-10-03T02:44:02.259Z,4.00
2018-10-03T02:45:02.405Z,4.00
2018-10-03T02:46:02.266Z,4.00
2018-10-03T02:47:02.235Z,4.00
2018-10-03T02:48:02.217Z,4.00
2018-10-03T02:49:02.246Z,4.00
2018-10-03T02:50:02.207Z,4.00
2018-10-03T02:51:02.212Z,4.00
2018-10-03T02:52:02.211Z,4.00
2018-10-03T02:53:02.191Z,4.00
2018-10-03T02:54:02.262Z,4.00
2018-10-03T02:55:02.141Z,4.00
2018-10-03T02:56:02.181Z,4.00
2018-10-03T02:57:02.140Z,4.00
2018-10-03T02:58:02.302Z,4.00
2018-10-03T02:59:02.151Z,4.00
2018-10-03T03:00:02.104Z,4.00
2018-10-03T03:01:02.106Z,4.00
2018-10-03T03:02:02.096Z,4.00
2018-10-03T03:03:02.076Z,4.00
2018-10-03T03:04:02.163Z,4.00
2018-10-03T03:05:02.053Z,4.00
2018-10-03T03:06:02.035Z,4.00
2018-10-03T03:07:02.040Z,4.00
2018-10-03T03:08:02.054Z,4.00
2018-10-03T03:09:02.092Z,4.00
2018-10-03T03:10:02.035Z,4.00
2018-10-03T03:11:02.010Z,4.00
2018-10-03T03:12:02.000Z,4.00
2018-10-03T03:13:02.008Z,4.00
2018-10-03T03:14:01.948Z,4.00
2018-10-03T03:15:01.949Z,4.00
2018-10-03T03:16:01.940Z,4.00
2018-10-03T03:17:01.994Z,4.00
2018-10-03T03:18:01.986Z,4.00
2018-10-03T03:19:01.987Z,4.00
2018-10-03T03:20:01.878Z,4.00
2018-10-03T03:21:01.870Z,4.00
2018-10-03T03:22:01.878Z,4.00
2018-10-03T03:23:01.885Z,4.00
2018-10-03T03:24:01.832Z,4.00
2018-10-03T03:25:01.823Z,4.00
2018-10-03T03:26:01.842Z,4.00
2018-10-03T03:27:01.799Z,4.00
2018-10-03T03:28:01.814Z,4.00
2018-10-03T03:29:01.796Z,4.00
2018-10-03T03:30:01.780Z,4.00
2018-10-03T03:31:01.795Z,4.00
2018-10-03T03:32:01.758Z,4.00
2018-10-03T03:33:01.777Z,4.00
2018-10-03T03:34:01.735Z,4.00
2018-10-03T03:35:01.716Z,4.00
2018-10-03T03:36:01.706Z,4.00
2018-10-03T03:37:01.695Z,4.00
2018-10-03T03:38:01.717Z,4.00
2018-10-03T03:39:01.697Z,4.00
2018-10-03T03:40:01.662Z,4.00
2018-10-03T03:41:01.665Z,4.00
2018-10-03T03:42:01.648Z,4.00
2018-10-03T03:43:01.641Z,4.00
2018-10-03T03:44:01.644Z,4.00
2018-10-03T03:45:01.607Z,4.00
2018-10-03T03:46:01.608Z,4.00
2018-10-03T03:47:01.599Z,4.00
2018-10-03T03:48:01.581Z,4.00
2018-10-03T03:49:01.600Z,4.00
2018-10-03T03:50:01.553Z,4.00
2018-10-03T03:51:01.672Z,4.00
2018-10-03T03:52:01.539Z,4.00
2018-10-03T03:53:01.531Z,4.00
2018-10-03T03:54:01.554Z,4.00
2018-10-03T03:55:01.531Z,4.00
2018-10-03T03:56:01.496Z,4.00
2018-10-03T03:57:01.502Z,4.00
2018-10-03T03:58:01.473Z,4.00
2018-10-03T03:59:01.467Z,4.00
2018-10-03T04:00:01.498Z,4.00
2018-10-03T04:01:01.449Z,4.00
2018-10-03T04:02:01.442Z,4.00
2018-10-03T04:03:01.419Z,4.00
2018-10-03T04:04:01.419Z,4.00
2018-10-03T04:05:01.432Z,4.00
2018-10-03T04:06:01.396Z,4.00
2018-10-03T04:07:01.400Z,4.00
2018-10-03T04:08:01.372Z,4.00
2018-10-03T04:09:01.351Z,4.00
2018-10-03T04:10:01.339Z,4.00
2018-10-03T04:11:01.352Z,4.00
2018-10-03T04:12:01.316Z,4.00
2018-10-03T04:13:01.315Z,4.00
2018-10-03T04:14:01.300Z,4.00
2018-10-03T04:15:01.289Z,4.00
2018-10-03T04:16:01.302Z,4.00
2018-10-03T04:17:01.269Z,4.00
2018-10-03T04:18:01.250Z,4.00
2018-10-03T04:19:01.241Z,4.00
2018-10-03T04:20:01.231Z,4.00
2018-10-03T04:21:01.252Z,4.00
2018-10-03T04:22:01.211Z,4.00
2018-10-03T04:23:01.218Z,4.00
2018-10-03T04:24:01.188Z,4.00
2018-10-03T04:25:01.176Z,4.00
2018-10-03T04:26:01.174Z,4.00
2018-10-03T04:27:01.182Z,4.00
2018-10-03T04:28:01.157Z,4.00
2018-10-03T04:29:01.139Z,4.00
2018-10-03T04:30:01.126Z,4.00
2018-10-03T04:31:01.120Z,4.00
2018-10-03T04:32:01.127Z,4.00
2018-10-03T04:33:01.101Z,4.00
2018-10-03T04:34:01.085Z,4.00
2018-10-03T04:35:01.102Z,4.00
2018-10-03T04:36:01.065Z,4.00
2018-10-03T04:37:01.081Z,4.00
2018-10-03T04:38:01.061Z,4.00
2018-10-03T04:39:01.036Z,4.00
2018-10-03T04:40:01.016Z,4.00
2018-10-03T04:41:01.010Z,4.00
2018-10-03T04:42:00.999Z,4.00
2018-10-03T04:43:01.012Z,4.00
2018-10-03T04:44:00.970Z,4.00
2018-10-03T04:45:00.970Z,4.00
2018-10-03T04:46:00.951Z,4.00
2018-10-03T04:47:00.942Z,4.00
2018-10-03T04:48:00.971Z,4.00
2018-10-03T04:49:00.976Z,4.00
2018-10-03T04:50:00.909Z,0.00
2018-10-03T04:51:00.921Z,0.00
2018-10-03T04:52:00.891Z,4.00
2018-10-03T04:53:00.916Z,4.00
2018-10-03T04:54:00.869Z,4.00
2018-10-03T04:55:00.852Z,4.00
2018-10-03T04:56:00.848Z,4.00
2018-10-03T04:57:00.852Z,4.00
2018-10-03T04:58:00.818Z,4.00
2018-10-03T04:59:00.859Z,4.00
2018-10-03T05:00:00.801Z,8.00
2018-10-03T05:01:00.785Z,8.00
2018-10-03T05:02:00.783Z,8.00
2018-10-03T05:03:00.770Z,12.00
2018-10-03T05:04:00.793Z,12.00
2018-10-03T05:05:00.757Z,12.00
2018-10-03T05:06:00.743Z,16.00
2018-10-03T05:07:00.733Z,16.00
2018-10-03T05:08:00.719Z,20.00
2018-10-03T05:09:00.739Z,20.00
2018-10-03T05:10:00.719Z,20.00
2018-10-03T05:11:00.682Z,20.00
2018-10-03T05:12:00.673Z,28.00
2018-10-03T05:13:00.656Z,28.00
2018-10-03T05:14:00.672Z,28.00
2018-10-03T05:15:00.647Z,32.00
2018-10-03T05:16:00.627Z,32.00
2018-10-03T05:17:00.635Z,36.00
2018-10-03T05:18:00.608Z,40.00
2018-10-03T05:19:00.627Z,48.00
2018-10-03T05:20:00.579Z,52.00
2018-10-03T05:21:00.571Z,52.00
2018-10-03T05:22:00.560Z,56.00
2018-10-03T05:23:00.554Z,60.00
2018-10-03T05:24:00.600Z,64.00
2018-10-03T05:25:00.545Z,72.00
2018-10-03T05:26:00.516Z,72.00
2018-10-03T05:27:00.506Z,76.00
2018-10-03T05:28:00.604Z,84.00
2018-10-03T05:29:00.533Z,88.00
2018-10-03T05:30:00.476Z,92.00
2018-10-03T05:31:00.461Z,92.00
2018-10-03T05:32:00.451Z,96.00
2018-10-03T05:33:00.460Z,92.00
2018-10-03T05:34:00.436Z,104.00
2018-10-03T05:35:00.472Z,108.00
2018-10-03T05:36:00.408Z,116.00
2018-10-03T05:37:00.401Z,124.00
2018-10-03T05:38:00.387Z,128.00
2018-10-03T05:39:00.393Z,132.00
2018-10-03T05:40:00.389Z,132.00
2018-10-03T05:41:00.353Z,140.00
2018-10-03T05:42:00.349Z,144.00
2018-10-03T05:43:00.333Z,148.00
2018-10-03T05:44:00.335Z,152.00
2018-10-03T05:45:00.341Z,160.00
2018-10-03T05:46:00.302Z,168.00
2018-10-03T05:47:00.299Z,184.00
2018-10-03T05:48:00.281Z,200.00
2018-10-03T05:49:00.292Z,216.00
2018-10-03T05:50:00.289Z,228.00
2018-10-03T05:51:00.257Z,240.00
2018-10-03T05:52:00.237Z,252.00
2018-10-03T05:53:00.230Z,256.00
2018-10-03T05:54:00.227Z,264.00
2018-10-03T05:55:00.202Z,284.00
2018-10-03T05:56:00.230Z,304.00
2018-10-03T05:57:00.181Z,312.00
2018-10-03T05:58:00.176Z,328.00
2018-10-03T05:59:00.167Z,340.00
2018-10-03T06:00:00.149Z,368.00
2018-10-03T06:01:00.179Z,412.00
2018-10-03T06:02:00.137Z,456.00
2018-10-03T06:03:00.114Z,496.00
2018-10-03T06:04:00.107Z,528.00
2018-10-03T06:05:00.123Z,564.00
2018-10-03T06:06:00.084Z,588.00
2018-10-03T06:07:00.083Z,564.00
2018-10-03T06:08:00.060Z,612.00
2018-10-03T06:09:00.055Z,652.00
2018-10-03T06:10:00.089Z,640.00
2018-10-03T06:11:00.037Z,604.00
2018-10-03T06:12:00.079Z,540.00
2018-10-03T06:13:00.018Z,520.00
2018-10-03T06:13:59.998Z,548.00
2018-10-03T06:14:59.991Z,572.00
2018-10-03T06:16:00.013Z,588.00
2018-10-03T06:16:59.975Z,612.00
2018-10-03T06:17:59.961Z,636.00
2018-10-03T06:18:59.953Z,636.00
2018-10-03T06:19:59.942Z,640.00
2018-10-03T06:20:59.956Z,648.00
2018-10-03T06:21:59.911Z,652.00
2018-10-03T06:22:59.924Z,648.00
2018-10-03T06:23:59.901Z,648.00
2018-10-03T06:24:59.885Z,656.00
2018-10-03T06:25:59.944Z,676.00
2018-10-03T06:26:59.863Z,704.00
2018-10-03T06:27:59.960Z,736.00
2018-10-03T06:28:59.847Z,772.00
2018-10-03T06:29:59.826Z,804.00
2018-10-03T06:30:59.839Z,816.00
2018-10-03T06:31:59.846Z,828.00
2018-10-03T06:32:59.795Z,852.00
2018-10-03T06:33:59.778Z,868.00
2018-10-03T06:34:59.769Z,904.00
2018-10-03T06:35:59.759Z,952.00
2018-10-03T06:36:59.779Z,1008.00
2018-10-03T06:37:59.739Z,1052.00
2018-10-03T06:38:59.735Z,1072.00
2018-10-03T06:39:59.716Z,1084.00
2018-10-03T06:40:59.708Z,1092.00
2018-10-03T06:41:59.730Z,1096.00
2018-10-03T06:42:59.687Z,1124.00
2018-10-03T06:43:59.677Z,1108.00
2018-10-03T06:44:59.678Z,1116.00
2018-10-03T06:45:59.650Z,1132.00
2018-10-03T06:46:59.692Z,1184.00
2018-10-03T06:47:59.655Z,1252.00
2018-10-03T06:48:59.652Z,1296.00
2018-10-03T06:49:59.617Z,1332.00
2018-10-03T06:50:59.597Z,1300.00
2018-10-03T06:51:59.591Z,1288.00
2018-10-03T06:52:59.594Z,1252.00
2018-10-03T06:53:59.562Z,1212.00
2018-10-03T06:54:59.560Z,1252.00
2018-10-03T06:55:59.554Z,1252.00
2018-10-03T06:56:59.589Z,1224.00
2018-10-03T06:57:59.548Z,1200.00
2018-10-03T06:58:59.524Z,1140.00
2018-10-03T06:59:59.501Z,1048.00
2018-10-03T07:00:59.508Z,960.00
2018-10-03T07:01:59.492Z,808.00
2018-10-03T07:02:59.510Z,752.00
2018-10-03T07:03:59.456Z,700.00
2018-10-03T07:04:59.446Z,604.00
2018-10-03T07:05:59.466Z,588.00
2018-10-03T07:06:59.434Z,524.00
2018-10-03T07:07:59.417Z,472.00
2018-10-03T07:08:59.430Z,496.00
2018-10-03T07:09:59.395Z,484.00
2018-10-03T07:10:59.388Z,440.00
2018-10-03T07:11:59.393Z,456.00
2018-10-03T07:12:59.369Z,440.00
2018-10-03T07:13:59.379Z,572.00
2018-10-03T07:14:59.374Z,732.00
2018-10-03T07:15:59.328Z,752.00
2018-10-03T07:16:59.329Z,744.00
2018-10-03T07:17:59.319Z,860.00
2018-10-03T07:18:59.330Z,832.00
2018-10-03T07:19:59.334Z,764.00
2018-10-03T07:20:59.293Z,936.00
2018-10-03T07:21:59.267Z,1100.00
2018-10-03T07:22:59.261Z,1136.00
2018-10-03T07:23:59.245Z,1012.00
2018-10-03T07:24:59.249Z,824.00
2018-10-03T07:25:59.255Z,700.00
2018-10-03T07:26:59.224Z,640.00
2018-10-03T07:27:59.221Z,564.00
2018-10-03T07:28:59.189Z,532.00
2018-10-03T07:29:59.182Z,564.00
2018-10-03T07:30:59.201Z,640.00
2018-10-03T07:31:59.176Z,872.00
2018-10-03T07:32:59.146Z,1116.00
2018-10-03T07:33:59.138Z,1104.00
2018-10-03T07:34:59.127Z,1320.00
2018-10-03T07:35:59.129Z,1512.00
2018-10-03T07:36:59.128Z,1488.00
2018-10-03T07:37:59.093Z,1292.00
2018-10-03T07:38:59.081Z,1048.00
2018-10-03T07:39:59.074Z,916.00
2018-10-03T07:40:59.066Z,904.00
2018-10-03T07:41:59.089Z,1048.00
2018-10-03T07:42:59.038Z,1160.00
2018-10-03T07:43:59.044Z,1096.00
2018-10-03T07:44:59.038Z,1024.00
2018-10-03T07:45:59.011Z,1164.00
2018-10-03T07:46:59.033Z,1276.00
2018-10-03T07:47:59.064Z,1460.00
2018-10-03T07:48:58.984Z,1532.00
2018-10-03T07:49:58.966Z,1516.00
2018-10-03T07:50:58.963Z,1420.00
2018-10-03T07:51:58.949Z,1580.00
2018-10-03T07:52:58.959Z,1600.00
2018-10-03T07:53:58.924Z,1304.00
2018-10-03T07:54:58.915Z,1084.00
2018-10-03T07:55:58.943Z,1044.00
2018-10-03T07:56:58.900Z,1408.00
2018-10-03T07:57:58.888Z,1384.00
2018-10-03T07:58:58.924Z,1348.00
2018-10-03T07:59:58.867Z,1456.00
2018-10-03T08:00:58.893Z,1440.00
2018-10-03T08:01:58.841Z,1368.00
2018-10-03T08:02:58.829Z,1356.00
2018-10-03T08:03:58.819Z,1552.00
2018-10-03T08:04:58.805Z,1852.00
2018-10-03T08:05:58.841Z,2016.00
2018-10-03T08:06:58.784Z,1896.00
2018-10-03T08:07:58.785Z,1720.00
2018-10-03T08:08:58.773Z,2032.00
2018-10-03T08:09:58.804Z,2548.00
2018-10-03T08:10:58.782Z,2628.00
2018-10-03T08:11:58.752Z,2588.00
2018-10-03T08:12:58.730Z,2536.00
2018-10-03T08:13:58.716Z,2496.00
2018-10-03T08:14:58.703Z,2456.00
2018-10-03T08:15:58.693Z,2464.00
2018-10-03T08:16:58.704Z,2524.00
2018-10-03T08:17:58.669Z,2548.00
2018-10-03T08:18:58.660Z,2560.00
2018-10-03T08:19:58.653Z,2568.00
2018-10-03T08:20:58.635Z,2592.00
2018-10-03T08:21:58.653Z,2648.00
2018-10-03T08:22:58.620Z,2712.00
2018-10-03T08:23:58.612Z,2804.00
2018-10-03T08:24:58.604Z,2928.00
2018-10-03T08:25:58.597Z,3036.00
2018-10-03T08:26:58.601Z,3068.00
2018-10-03T08:27:58.570Z,2988.00
2018-10-03T08:28:58.553Z,2900.00
2018-10-03T08:29:58.553Z,2848.00
2018-10-03T08:30:58.542Z,2800.00
2018-10-03T08:31:58.529Z,2764.00
2018-10-03T08:32:58.668Z,2780.00
2018-10-03T08:33:58.495Z,2848.00
2018-10-03T08:34:58.499Z,2904.00
2018-10-03T08:35:58.481Z,3032.00
2018-10-03T08:36:58.470Z,3168.00
2018-10-03T08:37:58.549Z,3264.00
2018-10-03T08:38:58.455Z,3412.00
2018-10-03T08:39:58.439Z,3608.00
2018-10-03T08:40:58.429Z,3704.00
2018-10-03T08:41:58.410Z,3712.00
2018-10-03T08:42:58.432Z,3664.00
2018-10-03T08:43:58.389Z,3680.00
2018-10-03T08:44:58.403Z,3824.00
2018-10-03T08:46:05.751Z,3956.00
2018-10-03T08:47:05.551Z,4000.00
2018-10-03T08:47:58.387Z,4216.00
2018-10-03T08:48:58.345Z,4528.00
2018-10-03T08:50:05.374Z,4860.00
2018-10-03T08:50:58.313Z,5036.00
2018-10-03T08:51:58.406Z,5164.00
2018-10-03T08:52:58.294Z,5332.00
2018-10-03T08:53:58.312Z,5424.00
2018-10-03T08:54:58.271Z,5536.00
2018-10-03T08:55:58.261Z,5344.00
2018-10-03T08:56:58.252Z,5152.00
2018-10-03T08:57:58.301Z,4760.00
2018-10-03T08:58:58.265Z,4220.00
2018-10-03T08:59:58.220Z,3788.00
2018-10-03T09:00:58.214Z,3644.00
2018-10-03T09:01:58.202Z,3808.00
2018-10-03T09:02:58.450Z,4180.00
2018-10-03T09:04:05.601Z,4488.00
2018-10-03T09:04:58.183Z,4692.00
2018-10-03T09:05:58.156Z,3588.00
2018-10-03T09:06:58.146Z,3040.00
2018-10-03T09:07:58.137Z,3132.00
2018-10-03T09:08:58.121Z,3436.00
2018-10-03T09:09:58.136Z,3120.00
2018-10-03T09:10:58.102Z,3236.00
2018-10-03T09:11:58.100Z,3664.00
2018-10-03T09:12:58.114Z,3388.00
2018-10-03T09:13:58.077Z,3356.00
2018-10-03T09:14:58.088Z,3636.00
2018-10-03T09:15:58.053Z,3296.00
2018-10-03T09:16:58.053Z,2328.00
2018-10-03T09:17:58.024Z,2368.00
2018-10-03T09:18:58.017Z,2340.00
2018-10-03T09:19:58.055Z,2812.00
2018-10-03T09:20:58.004Z,2972.00
2018-10-03T09:21:58.094Z,2452.00
2018-10-03T09:22:57.977Z,2248.00
2018-10-03T09:23:57.975Z,2208.00
2018-10-03T09:24:57.986Z,2208.00
2018-10-03T09:25:57.940Z,1980.00
2018-10-03T09:26:57.932Z,2012.00
2018-10-03T09:27:57.939Z,2148.00
2018-10-03T09:28:57.905Z,1968.00
2018-10-03T09:29:57.925Z,1844.00
2018-10-03T09:30:57.893Z,1952.00
2018-10-03T09:31:57.876Z,2332.00
2018-10-03T09:32:57.871Z,2152.00
2018-10-03T09:33:57.866Z,2240.00
2018-10-03T09:34:57.845Z,2768.00
2018-10-03T09:35:57.853Z,2976.00
2018-10-03T09:36:57.827Z,2808.00
2018-10-03T09:37:57.818Z,2704.00
2018-10-03T09:38:57.798Z,3108.00
2018-10-03T09:39:57.788Z,4416.00
2018-10-03T09:40:57.807Z,4012.00
2018-10-03T09:41:57.772Z,3220.00
2018-10-03T09:42:57.758Z,3140.00
2018-10-03T09:43:57.744Z,3148.00
2018-10-03T09:44:57.743Z,3304.00
2018-10-03T09:45:57.777Z,2888.00
2018-10-03T09:46:57.724Z,3572.00
2018-10-03T09:47:57.708Z,3936.00
2018-10-03T09:48:57.691Z,3648.00
2018-10-03T09:49:57.681Z,3612.00
2018-10-03T09:50:57.700Z,3644.00
2018-10-03T09:51:57.680Z,3564.00
2018-10-03T09:52:57.651Z,4240.00
2018-10-03T09:53:57.653Z,4408.00
2018-10-03T09:54:57.632Z,3980.00
2018-10-03T09:55:57.636Z,3488.00
2018-10-03T09:56:57.637Z,3360.00
2018-10-03T09:57:57.629Z,3140.00
2018-10-03T09:58:57.590Z,3108.00
2018-10-03T09:59:57.576Z,3556.00
2018-10-03T10:00:57.656Z,3408.00
2018-10-03T10:01:57.624Z,3216.00
2018-10-03T10:02:57.543Z,3028.00
2018-10-03T10:03:57.531Z,2920.00
2018-10-03T10:04:57.532Z,2836.00
2018-10-03T10:05:57.510Z,3004.00
2018-10-03T10:06:57.498Z,2852.00
2018-10-03T10:07:57.510Z,2712.00
2018-10-03T10:08:57.487Z,2560.00
2018-10-03T10:09:57.467Z,1884.00
2018-10-03T10:10:57.517Z,1604.00
2018-10-03T10:11:57.445Z,1648.00
2018-10-03T10:12:57.459Z,1544.00
2018-10-03T10:13:57.426Z,1528.00
2018-10-03T10:14:57.416Z,1676.00
2018-10-03T10:15:57.410Z,1784.00
2018-10-03T10:16:57.396Z,1576.00
2018-10-03T10:17:57.427Z,1364.00
2018-10-03T10:18:57.371Z,1260.00
2018-10-03T10:19:57.375Z,1104.00
2018-10-03T10:20:57.510Z,1200.00
2018-10-03T10:21:57.357Z,1128.00
2018-10-03T10:22:57.329Z,1268.00
2018-10-03T10:23:57.341Z,1460.00
2018-10-03T10:24:57.307Z,1288.00
2018-10-03T10:25:57.293Z,1284.00
2018-10-03T10:26:57.284Z,1444.00
2018-10-03T10:27:57.280Z,1480.00
2018-10-03T10:28:57.287Z,1420.00
2018-10-03T10:29:57.257Z,1216.00
2018-10-03T10:30:57.246Z,1188.00
2018-10-03T10:31:57.268Z,1252.00
2018-10-03T10:32:57.368Z,1136.00
2018-10-03T10:33:57.248Z,1080.00
2018-10-03T10:34:57.200Z,1104.00
2018-10-03T10:35:57.223Z,1372.00
2018-10-03T10:36:57.201Z,1524.00
2018-10-03T10:37:57.195Z,1608.00
2018-10-03T10:38:57.169Z,1752.00
2018-10-03T10:39:57.185Z,1660.00
2018-10-03T10:40:57.231Z,1484.00
2018-10-03T10:41:57.127Z,1464.00
2018-10-03T10:42:57.118Z,1700.00
2018-10-03T10:43:57.108Z,1884.00
2018-10-03T10:44:57.103Z,1864.00
2018-10-03T10:45:57.116Z,1856.00
2018-10-03T10:46:57.069Z,1620.00
2018-10-03T10:47:57.057Z,1584.00
2018-10-03T10:48:57.094Z,1564.00
2018-10-03T10:49:57.043Z,1644.00
2018-10-03T10:50:57.032Z,1404.00
2018-10-03T10:51:57.071Z,1512.00
2018-10-03T10:52:57.010Z,1732.00
2018-10-03T10:53:56.995Z,1668.00
2018-10-03T10:54:56.992Z,1656.00
2018-10-03T10:55:56.975Z,1588.00
2018-10-03T10:56:56.991Z,1496.00
2018-10-03T10:57:56.992Z,1416.00
2018-10-03T10:58:56.951Z,1512.00
2018-10-03T10:59:56.929Z,1412.00
2018-10-03T11:00:56.920Z,1476.00
2018-10-03T11:01:56.922Z,1568.00
2018-10-03T11:02:56.943Z,1536.00
2018-10-03T11:03:56.893Z,1644.00
2018-10-03T11:04:56.881Z,1600.00
2018-10-03T11:05:56.867Z,1620.00
2018-10-03T11:06:56.855Z,1548.00
2018-10-03T11:07:56.879Z,1760.00
2018-10-03T11:08:56.841Z,2156.00
2018-10-03T11:09:56.845Z,1888.00
2018-10-03T11:10:56.847Z,1512.00
2018-10-03T11:11:56.804Z,1620.00
2018-10-03T11:12:56.797Z,1576.00
2018-10-03T11:13:56.806Z,1676.00
2018-10-03T11:14:56.772Z,1644.00
2018-10-03T11:15:56.757Z,1464.00
2018-10-03T11:16:56.771Z,1384.00
2018-10-03T11:17:56.750Z,1304.00
2018-10-03T11:18:56.765Z,1332.00
2018-10-03T11:19:56.720Z,1336.00
2018-10-03T11:20:56.706Z,1472.00
2018-10-03T11:21:56.694Z,1676.00
2018-10-03T11:22:56.681Z,1928.00
2018-10-03T11:23:56.946Z,1884.00
2018-10-03T11:24:56.933Z,1704.00
2018-10-03T11:25:56.654Z,1612.00
2018-10-03T11:26:56.644Z,1692.00
2018-10-03T11:27:56.628Z,1760.00
2018-10-03T11:28:56.623Z,1816.00
2018-10-03T11:29:56.635Z,1716.00
2018-10-03T11:30:56.604Z,1932.00
2018-10-03T11:31:56.644Z,1660.00
2018-10-03T11:32:56.576Z,1724.00
2018-10-03T11:33:56.590Z,1700.00
2018-10-03T11:34:56.552Z,1516.00
2018-10-03T11:35:56.542Z,1476.00
2018-10-03T11:36:56.572Z,1488.00
2018-10-03T11:37:56.573Z,1552.00
2018-10-03T11:38:56.514Z,1992.00
2018-10-03T11:39:56.499Z,2020.00
2018-10-03T11:40:56.508Z,2252.00
2018-10-03T11:41:56.551Z,1964.00
2018-10-03T11:42:56.474Z,1708.00
2018-10-03T11:43:56.559Z,1592.00
2018-10-03T11:44:56.451Z,1552.00
2018-10-03T11:45:56.437Z,1376.00
2018-10-03T11:46:56.448Z,1172.00
2018-10-03T11:47:56.416Z,1152.00
2018-10-03T11:48:56.403Z,1388.00
2018-10-03T11:49:56.401Z,1328.00
2018-10-03T11:50:56.381Z,1268.00
2018-10-03T11:51:56.412Z,1536.00
2018-10-03T11:52:56.364Z,1632.00
2018-10-03T11:53:56.380Z,1440.00
2018-10-03T11:54:56.340Z,1272.00
2018-10-03T11:55:56.328Z,1140.00
2018-10-03T11:56:56.379Z,1092.00
2018-10-03T11:57:56.308Z,1352.00
2018-10-03T11:58:56.355Z,1436.00
2018-10-03T11:59:56.290Z,1600.00
2018-10-03T12:00:56.275Z,1696.00
2018-10-03T12:01:56.266Z,1524.00
2018-10-03T12:02:56.335Z,1568.00
2018-10-03T12:03:56.281Z,2516.00
2018-10-03T12:04:56.249Z,4112.00
2018-10-03T12:05:56.219Z,4000.00
2018-10-03T12:06:56.211Z,2304.00
2018-10-03T12:07:56.215Z,2436.00
2018-10-03T12:08:56.191Z,2468.00
2018-10-03T12:09:56.201Z,2036.00
2018-10-03T12:10:56.171Z,1656.00
2018-10-03T12:11:56.157Z,1540.00
2018-10-03T12:12:56.166Z,1448.00
2018-10-03T12:13:56.136Z,1212.00
2018-10-03T12:14:56.147Z,1008.00
2018-10-03T12:15:56.134Z,968.00
2018-10-03T12:16:56.117Z,992.00
2018-10-03T12:17:56.093Z,1328.00
2018-10-03T12:18:56.095Z,1836.00
2018-10-03T12:19:56.102Z,2104.00
2018-10-03T12:20:56.065Z,2136.00
2018-10-03T12:21:56.068Z,2076.00
2018-10-03T12:22:56.042Z,1560.00
2018-10-03T12:23:56.028Z,1192.00
2018-10-03T12:24:56.019Z,908.00
2018-10-03T12:25:56.028Z,796.00
2018-10-03T12:26:55.995Z,804.00
2018-10-03T12:27:55.990Z,844.00
2018-10-03T12:28:55.974Z,896.00
2018-10-03T12:29:55.967Z,1060.00
2018-10-03T12:30:55.983Z,1328.00
2018-10-03T12:31:55.949Z,1480.00
2018-10-03T12:32:55.934Z,1492.00
2018-10-03T12:33:56.023Z,1476.00
2018-10-03T12:34:55.927Z,1440.00
2018-10-03T12:35:55.934Z,1608.00
2018-10-03T12:36:55.891Z,1868.00
2018-10-03T12:37:55.878Z,2156.00